KEKO

Elko Regional Airport

Elko, Nevada, USA
METAR KEKO 170356Z AUTO 07007KT 10SM CLR 11/M06 A3029 RMK AO2 SLP253 T01061061 $
Observed Flight Rules
Oct-17 @ 03:56 UTC (2 hours ago) Visual Flight Rules
Wind Visibility Clouds
70° at 7 knots 10 miles
  • Clear skies
Temperatures Readings
Current 11°C / 52°F
Dewpoint -6°C / 21°F
Humidity 30%
Altimeter 30.29" Hg
Pressure 1025.3 hPa
Elevation 1547
METAR KEKO 170356Z AUTO 07007KT 10SM CLR 11/M06 A3029 RMK AO2 SLP253 T01061061 $
Observed Flight Rules
Oct-17 @ 03:56 UTC
(2 hours ago)
VFR
Wind Visibility
70° at 7 knots 10 miles
Clouds
  • Clear skies
Temperature Dewpoint
11°C / 52°F -6°C / 21°F
Humidity Altimeter Pressure
30% 30.29" Hg 1025.3 hPa